This is the latest recevied weather packets stored in our database for station/object KP4DJT. If no packets are shown the sender has not sent any weather packets the latest 10 day(s).
| Time | Temp. | Humidity | Pressure | Rain* | Wind** | Luminosity | Snow |
|---|---|---|---|---|---|---|---|
| 1777086150 | 19.44° C | 82% | 1008.8 hPa | 0 mm | - | 0 W/m² | - |
| 1777085538 | 19.44° C | 82% | 1008.9 hPa | 0 mm | - | 0 W/m² | - |
| 1777084938 | 20° C | 81% | 1008.8 hPa | 0 mm | - | 0 W/m² | - |
| 1777084339 | 20° C | 80% | 1008.8 hPa | 0 mm | - | 0 W/m² | - |
| 1777079540 | 20.56° C | 79% | 1007.7 hPa | 0 mm | - | 4 W/m² | - |
| 1777077157 | 21.11° C | 78% | 1007.4 hPa | 0 mm | - | 45 W/m² | - |
| 1777060938 | 22.22° C | 76% | 1006.6 hPa | 0 mm | - | 951 W/m² | - |
| 1777060338 | 21.67° C | 77% | 1006.8 hPa | 0 mm | - | 919 W/m² | - |
| 1777054939 | 18.33° C | 87% | 1007.9 hPa | 0 mm | - | 331 W/m² | - |
| 1777053739 | 17.78° C | 88% | 1008.1 hPa | 0 mm | - | 308 W/m² | - |
| 1777050740 | 17.78° C | 87% | 1008.1 hPa | 0 mm | - | 334 W/m² | - |
| 1777045958 | 16.67° C | 90% | 1007.8 hPa | 0 mm | - | 310 W/m² | - |
| 1777044139 | 17.22° C | 89% | 1007.4 hPa | 0 mm | - | 363 W/m² | - |
| 1777039339 | 16.67° C | 93% | 1007.1 hPa | 0 mm | - | 318 W/m² | - |
| 1777038740 | 17.22° C | 93% | 1006.8 hPa | 0 mm | - | 304 W/m² | - |
| 1777036940 | 16.67° C | 94% | 1006.3 hPa | 0 mm | - | 178 W/m² | - |
| 1777035746 | 16.11° C | 95% | 1006.1 hPa | 0 mm | - | 115 W/m² | - |
| 1777031547 | 15.56° C | 96% | 1004.9 hPa | 0 mm | - | 5 W/m² | - |
| 1777025589 | 16.67° C | 94% | 1004 hPa | 0 mm | - | 0 W/m² | - |
| 1777015339 | 20° C | 68% | 1004.3 hPa | 0 mm | - | 0 W/m² | - |
| 1777013537 | 21.67° C | 82% | 1003.7 hPa | 0 mm | - | 0 W/m² | - |
| 1777008138 | 22.78° C | 79% | 1001.8 hPa | 0 mm | - | 0 W/m² | - |
| 1777007538 | 22.78° C | 79% | 1002.1 hPa | 0 mm | - | 0 W/m² | - |
| 1776998537 | - | - | - | 0.25 mm | - | - | - |
| 1776993138 | - | - | - | 0.51 mm | - | - | - |
* Rain latest hour (hover to see other rain measurements)
** Current wind speed in m/s (hover to see current wind gust speed)